Time,TemperatureF,DewpointF,PressureIn,WindDirection,WindDirectionDegrees,WindSpeedMPH,WindSpeedGustMPH,Humidity,HourlyPrecipIn,Conditions,Clouds,dailyrainin,SoftwareType,DateUTC
2013-01-21 00:04:00,18.7,0.4,23.65,NE,45,2.2,2.5,44,0.00,,---,0.00,VWS V14.01,2013-01-21 08:04:00,
2013-01-21 00:09:00,18.7,0.4,23.65,NNE,22,0.9,2.9,44,0.00,,---,0.00,VWS V14.01,2013-01-21 08:09:00,
2013-01-21 00:14:00,19.0,0.7,23.65,WSW,248,0.0,0.0,44,0.00,,---,0.00,VWS V14.01,2013-01-21 08:14:00,
2013-01-21 00:19:00,19.0,0.7,23.68,SW,225,1.1,2.2,44,0.00,,---,0.00,VWS V14.01,2013-01-21 08:19:00,
2013-01-21 00:24:00,18.7,0.4,23.68,SW,225,2.5,2.5,44,0.00,,---,0.00,VWS V14.01,2013-01-21 08:24:00,
2013-01-21 00:29:00,18.3,0.1,23.68,SSE,158,0.0,0.0,44,0.00,,---,0.00,VWS V14.01,2013-01-21 08:29:00,
2013-01-21 00:34:00,17.8,-0.4,23.65,NNE,22,2.5,2.7,44,0.00,,---,0.00,VWS V14.01,2013-01-21 08:34:00,
2013-01-21 00:39:00,17.6,-0.1,23.65,NNW,338,0.0,0.0,45,0.00,,---,0.00,VWS V14.01,2013-01-21 08:39:00,
2013-01-21 00:44:00,17.6,-0.1,23.65,South,180,0.0,0.0,45,0.00,,---,0.00,VWS V14.01,2013-01-21 08:44:00,
2013-01-21 00:49:00,17.6,-0.1,23.65,South,180,0.0,2.0,45,0.00,,---,0.00,VWS V14.01,2013-01-21 08:49:00,
2013-01-21 00:54:00,17.8,0.1,23.65,WSW,248,2.2,2.5,45,0.00,,---,0.00,VWS V14.01,2013-01-21 08:54:00,
2013-01-21 00:59:00,17.4,-0.3,23.65,WSW,248,0.0,0.0,45,0.00,,---,0.00,VWS V14.01,2013-01-21 08:59:00,
2013-01-21 01:04:00,16.9,-0.8,23.65,NE,45,2.9,2.9,45,0.00,,---,0.00,VWS V14.01,2013-01-21 09:04:00,
2013-01-21 01:09:00,17.1,-0.6,23.65,NNE,22,1.1,1.6,45,0.00,,---,0.00,VWS V14.01,2013-01-21 09:09:00,
2013-01-21 01:14:00,17.6,0.3,23.65,NNW,338,0.0,2.5,46,0.00,,---,0.00,VWS V14.01,2013-01-21 09:14:00,
2013-01-21 01:19:00,17.6,0.3,23.65,SW,225,1.1,1.6,46,0.00,,---,0.00,VWS V14.01,2013-01-21 09:19:00,
2013-01-21 01:24:00,17.8,0.1,23.65,WSW,248,2.5,2.5,45,0.00,,---,0.00,VWS V14.01,2013-01-21 09:24:00,
2013-01-21 01:29:00,17.2,-0.4,23.65,WSW,248,2.0,2.2,45,0.00,,---,0.00,VWS V14.01,2013-01-21 09:29:00,
2013-01-21 01:34:00,16.7,0.0,23.68,West,270,1.1,1.3,47,0.00,,---,0.00,VWS V14.01,2013-01-21 09:34:00,
2013-01-21 01:39:00,16.0,-0.7,23.68,NNE,22,2.9,2.9,47,0.00,,---,0.00,VWS V14.01,2013-01-21 09:39:00,
2013-01-21 01:44:00,15.8,-0.4,23.68,North,0,0.9,2.0,48,0.00,,---,0.00,VWS V14.01,2013-01-21 09:44:00,
2013-01-21 01:49:00,16.2,-0.5,23.65,SW,225,0.0,0.0,47,0.00,,---,0.00,VWS V14.01,2013-01-21 09:49:00,
2013-01-21 01:54:00,16.3,0.1,23.65,WSW,248,1.6,2.9,48,0.00,,---,0.00,VWS V14.01,2013-01-21 09:54:00,
2013-01-21 01:59:00,16.0,0.2,23.65,NE,45,2.2,2.2,49,0.00,,---,0.00,VWS V14.01,2013-01-21 09:59:00,
2013-01-21 02:04:00,15.8,0.0,23.65,NNE,22,2.7,2.7,49,0.00,,---,0.00,VWS V14.01,2013-01-21 10:04:00,
2013-01-21 02:09:00,15.8,-0.4,23.65,NNE,22,0.0,0.0,48,0.00,,---,0.00,VWS V14.01,2013-01-21 10:09:00,
2013-01-21 02:14:00,16.0,-0.2,23.65,North,0,0.9,1.6,48,0.00,,---,0.00,VWS V14.01,2013-01-21 10:14:00,
2013-01-21 02:19:00,15.8,-0.4,23.65,NE,45,2.5,2.5,48,0.00,,---,0.00,VWS V14.01,2013-01-21 10:19:00,
2013-01-21 02:24:00,16.2,-0.1,23.65,South,180,0.0,0.0,48,0.00,,---,0.00,VWS V14.01,2013-01-21 10:24:00,
2013-01-21 02:29:00,16.2,-0.1,23.65,NNE,22,1.1,1.1,48,0.00,,---,0.00,VWS V14.01,2013-01-21 10:29:00,
2013-01-21 02:34:00,16.2,-0.1,23.65,WSW,248,0.0,0.9,48,0.00,,---,0.00,VWS V14.01,2013-01-21 10:34:00,
2013-01-21 02:39:00,16.0,-0.2,23.65,WSW,248,0.0,0.0,48,0.00,,---,0.00,VWS V14.01,2013-01-21 10:39:00,
2013-01-21 02:44:00,16.0,-0.2,23.65,SSW,202,2.0,2.2,48,0.00,,---,0.00,VWS V14.01,2013-01-21 10:44:00,
2013-01-21 02:49:00,15.6,-0.6,23.65,NE,45,2.7,2.7,48,0.00,,---,0.00,VWS V14.01,2013-01-21 10:49:00,
2013-01-21 02:54:00,15.4,-0.7,23.65,NE,45,1.1,3.1,48,0.00,,---,0.00,VWS V14.01,2013-01-21 10:54:00,
2013-01-21 02:59:00,15.6,-0.6,23.65,NNW,338,0.0,0.0,48,0.00,,---,0.00,VWS V14.01,2013-01-21 10:59:00,
2013-01-21 03:04:00,15.6,-0.6,23.65,NNW,338,0.0,0.0,48,0.00,,---,0.00,VWS V14.01,2013-01-21 11:04:00,
2013-01-21 03:09:00,15.8,-0.4,23.65,South,180,0.0,0.0,48,0.00,,---,0.00,VWS V14.01,2013-01-21 11:09:00,
2013-01-21 03:14:00,16.0,-0.2,23.65,SSW,202,2.0,2.5,48,0.00,,---,0.00,VWS V14.01,2013-01-21 11:14:00,
2013-01-21 03:19:00,15.6,-0.6,23.65,SSW,202,0.9,1.3,48,0.00,,---,0.00,VWS V14.01,2013-01-21 11:19:00,
2013-01-21 03:24:00,15.3,-0.9,23.65,ENE,68,0.0,0.0,48,0.00,,---,0.00,VWS V14.01,2013-01-21 11:24:00,
2013-01-21 03:29:00,15.3,-0.9,23.65,NE,45,2.0,2.5,48,0.00,,---,0.00,VWS V14.01,2013-01-21 11:29:00,
2013-01-21 03:34:00,15.3,-0.9,23.65,WSW,248,1.6,1.6,48,0.00,,---,0.00,VWS V14.01,2013-01-21 11:34:00,
2013-01-21 03:40:00,15.3,-0.9,23.65,ESE,112,0.0,1.1,48,0.00,,---,0.00,VWS V14.01,2013-01-21 11:40:00,
2013-01-21 03:45:00,15.1,-0.6,23.65,NE,45,0.0,0.0,49,0.00,,---,0.00,VWS V14.01,2013-01-21 11:45:00,
2013-01-21 03:50:00,14.9,-1.2,23.65,ENE,68,1.3,2.2,48,0.00,,---,0.00,VWS V14.01,2013-01-21 11:50:00,
2013-01-21 03:55:00,15.1,-0.6,23.65,ENE,68,0.0,2.7,49,0.00,,---,0.00,VWS V14.01,2013-01-21 11:55:00,
2013-01-21 04:00:00,15.3,-0.5,23.65,WSW,248,0.0,0.0,49,0.00,,---,0.00,VWS V14.01,2013-01-21 12:00:00,
2013-01-21 04:05:00,15.1,-1.1,23.62,North,0,0.0,0.0,48,0.00,,---,0.00,VWS V14.01,2013-01-21 12:05:00,
2013-01-21 04:10:00,15.1,-1.1,23.62,South,180,2.0,2.0,48,0.00,,---,0.00,VWS V14.01,2013-01-21 12:10:00,
2013-01-21 04:15:00,14.9,-1.2,23.62,West,270,0.0,0.0,48,0.00,,---,0.00,VWS V14.01,2013-01-21 12:15:00,
2013-01-21 04:20:00,14.5,-1.6,23.62,ENE,68,3.1,3.1,48,0.00,,---,0.00,VWS V14.01,2013-01-21 12:20:00,
2013-01-21 04:25:00,14.7,-1.0,23.62,NNE,22,0.0,0.0,49,0.00,,---,0.00,VWS V14.01,2013-01-21 12:25:00,
2013-01-21 04:30:00,14.5,-1.1,23.62,WSW,248,1.1,1.6,49,0.00,,---,0.00,VWS V14.01,2013-01-21 12:30:00,
2013-01-21 04:35:00,14.5,-1.1,23.65,ENE,68,2.0,2.5,49,0.00,,---,0.00,VWS V14.01,2013-01-21 12:35:00,
2013-01-21 04:40:00,14.7,-1.0,23.65,WSW,248,2.7,2.9,49,0.00,,---,0.00,VWS V14.01,2013-01-21 12:40:00,
2013-01-21 04:45:00,14.5,-1.1,23.65,WSW,248,1.6,1.6,49,0.00,,---,0.00,VWS V14.01,2013-01-21 12:45:00,
2013-01-21 04:51:00,14.5,-0.7,23.62,NNE,22,3.1,3.1,50,0.00,,---,0.00,VWS V14.01,2013-01-21 12:51:00,
2013-01-21 04:56:00,14.9,-0.4,23.62,NNE,22,1.6,1.6,50,0.00,,---,0.00,VWS V14.01,2013-01-21 12:56:00,
2013-01-21 05:01:00,15.1,-0.2,23.62,East,90,1.1,2.2,50,0.00,,---,0.00,VWS V14.01,2013-01-21 13:01:00,
2013-01-21 05:06:00,15.4,0.1,23.62,North,0,0.0,0.0,50,0.00,,---,0.00,VWS V14.01,2013-01-21 13:06:00,
2013-01-21 05:11:00,15.3,-0.5,23.62,WSW,248,2.7,3.1,49,0.00,,---,0.00,VWS V14.01,2013-01-21 13:11:00,
2013-01-21 05:16:00,15.1,-0.6,23.62,ENE,68,0.0,0.0,49,0.00,,---,0.00,VWS V14.01,2013-01-21 13:16:00,
2013-01-21 05:21:00,14.9,-0.8,23.62,NNW,338,0.0,0.0,49,0.00,,---,0.00,VWS V14.01,2013-01-21 13:21:00,
2013-01-21 05:26:00,14.7,-1.0,23.62,NE,45,1.6,2.5,49,0.00,,---,0.00,VWS V14.01,2013-01-21 13:26:00,
2013-01-21 05:31:00,14.5,-1.1,23.62,North,0,1.3,1.3,49,0.00,,---,0.00,VWS V14.01,2013-01-21 13:31:00,
2013-01-21 05:36:00,14.5,-1.1,23.65,ENE,68,0.0,1.1,49,0.00,,---,0.00,VWS V14.01,2013-01-21 13:36:00,
2013-01-21 05:41:00,14.5,-1.1,23.65,ESE,112,0.0,0.0,49,0.00,,---,0.00,VWS V14.01,2013-01-21 13:41:00,
2013-01-21 05:46:00,14.7,-1.0,23.65,SSW,202,2.0,2.0,49,0.00,,---,0.00,VWS V14.01,2013-01-21 13:46:00,
2013-01-21 05:51:00,14.5,-1.1,23.62,NE,45,2.0,2.0,49,0.00,,---,0.00,VWS V14.01,2013-01-21 13:51:00,
2013-01-21 05:57:00,14.5,-1.1,23.62,East,90,0.0,0.0,49,0.00,,---,0.00,VWS V14.01,2013-01-21 13:57:00,
2013-01-21 06:02:00,14.4,-1.7,23.62,NNE,22,1.3,1.3,48,0.00,,---,0.00,VWS V14.01,2013-01-21 14:02:00,
2013-01-21 06:07:00,14.4,-1.7,23.65,SSW,202,2.5,2.5,48,0.00,,---,0.00,VWS V14.01,2013-01-21 14:07:00,
2013-01-21 06:12:00,14.0,-1.2,23.65,NNE,22,1.3,1.6,50,0.00,,---,0.00,VWS V14.01,2013-01-21 14:12:00,
2013-01-21 06:17:00,13.5,-1.7,23.65,NNE,22,1.3,2.0,50,0.00,,---,0.00,VWS V14.01,2013-01-21 14:17:00,
2013-01-21 06:22:00,13.6,-1.5,23.65,SW,225,0.9,0.9,50,0.00,,---,0.00,VWS V14.01,2013-01-21 14:22:00,
2013-01-21 06:28:00,13.6,-1.5,23.65,ENE,68,2.0,2.0,50,0.00,,---,0.00,VWS V14.01,2013-01-21 14:28:00,
2013-01-21 06:33:00,14.2,-0.6,23.62,ENE,68,2.0,2.2,51,0.00,,---,0.00,VWS V14.01,2013-01-21 14:33:00,
2013-01-21 06:38:00,14.5,-0.7,23.62,South,180,1.1,1.1,50,0.00,,---,0.00,VWS V14.01,2013-01-21 14:38:00,
2013-01-21 06:44:00,14.4,-0.9,23.62,NNE,22,0.0,0.0,50,0.00,,---,0.00,VWS V14.01,2013-01-21 14:44:00,
2013-01-21 06:49:00,14.2,-1.0,23.65,SW,225,0.0,0.0,50,0.00,,---,0.00,VWS V14.01,2013-01-21 14:49:00,
2013-01-21 06:54:00,13.8,-1.4,23.65,NE,45,0.0,1.1,50,0.00,,---,0.00,VWS V14.01,2013-01-21 14:54:00,
2013-01-21 06:59:00,14.0,-1.2,23.65,WSW,248,0.0,1.6,50,0.00,,---,0.00,VWS V14.01,2013-01-21 14:59:00,
2013-01-21 07:04:00,13.8,-1.4,23.65,West,270,0.0,0.0,50,0.00,,---,0.00,VWS V14.01,2013-01-21 15:04:00,
2013-01-21 07:09:00,13.8,-1.4,23.65,WSW,248,0.0,0.0,50,0.00,,---,0.00,VWS V14.01,2013-01-21 15:09:00,
2013-01-21 07:15:00,13.5,-1.7,23.65,NE,45,1.6,2.0,50,0.00,,---,0.00,VWS V14.01,2013-01-21 15:15:00,
2013-01-21 07:20:00,13.5,-1.7,23.65,NNE,22,0.0,0.0,50,0.00,,---,0.00,VWS V14.01,2013-01-21 15:20:00,
2013-01-21 07:25:00,13.5,-1.7,23.65,East,90,2.2,2.9,50,0.00,,---,0.00,VWS V14.01,2013-01-21 15:25:00,
2013-01-21 07:30:00,13.8,-1.4,23.65,NNE,22,0.0,0.0,50,0.00,,---,0.00,VWS V14.01,2013-01-21 15:30:00,
2013-01-21 07:36:00,13.8,-1.4,23.65,NE,45,0.0,1.1,50,0.00,,---,0.00,VWS V14.01,2013-01-21 15:36:00,
2013-01-21 07:41:00,14.2,-0.6,23.65,WSW,248,3.1,3.1,51,0.00,,---,0.00,VWS V14.01,2013-01-21 15:41:00,
2013-01-21 07:46:00,14.7,0.3,23.65,ENE,68,2.0,2.0,52,0.00,,---,0.00,VWS V14.01,2013-01-21 15:46:00,
2013-01-21 07:51:00,16.5,2.4,23.65,ENE,68,2.0,2.0,53,0.00,,---,0.00,VWS V14.01,2013-01-21 15:51:00,
2013-01-21 07:57:00,18.5,4.2,23.65,ENE,68,3.1,3.1,53,0.00,,---,0.00,VWS V14.01,2013-01-21 15:57:00,
2013-01-21 08:02:00,19.4,4.2,23.65,SW,225,1.6,2.0,51,0.00,,---,0.00,VWS V14.01,2013-01-21 16:02:00,
2013-01-21 08:07:00,20.8,5.6,23.65,NNE,22,0.0,0.0,51,0.00,,---,0.00,VWS V14.01,2013-01-21 16:07:00,
2013-01-21 08:12:00,22.6,6.8,23.65,NNE,22,0.0,0.0,50,0.00,,---,0.00,VWS V14.01,2013-01-21 16:12:00,
2013-01-21 08:18:00,24.8,8.4,23.65,NNE,22,0.0,0.0,49,0.00,,---,0.00,VWS V14.01,2013-01-21 16:18:00,
2013-01-21 08:23:00,26.1,9.1,23.65,WSW,248,1.3,2.0,48,0.00,,---,0.00,VWS V14.01,2013-01-21 16:23:00,
2013-01-21 08:28:00,27.3,9.3,23.65,NE,45,4.0,4.0,46,0.00,,---,0.00,VWS V14.01,2013-01-21 16:28:00,
2013-01-21 08:33:00,30.9,10.0,23.65,NNE,22,3.8,4.3,41,0.00,,---,0.00,VWS V14.01,2013-01-21 16:33:00,
2013-01-21 08:39:00,34.3,12.0,23.65,NE,45,2.5,4.0,39,0.00,,---,0.00,VWS V14.01,2013-01-21 16:39:00,
2013-01-21 08:44:00,36.3,11.3,23.65,North,0,3.4,4.0,35,0.00,,---,0.00,VWS V14.01,2013-01-21 16:44:00,
2013-01-21 08:49:00,38.3,11.0,23.68,NE,45,0.0,2.9,32,0.00,,---,0.00,VWS V14.01,2013-01-21 16:49:00,
2013-01-21 08:55:00,39.9,10.2,23.68,NE,45,4.9,4.9,29,0.00,,---,0.00,VWS V14.01,2013-01-21 16:55:00,
2013-01-21 09:00:00,40.6,10.9,23.68,North,0,6.5,7.4,29,0.00,,---,0.00,VWS V14.01,2013-01-21 17:00:00,
2013-01-21 09:05:00,41.4,10.7,23.68,North,0,6.3,7.4,28,0.00,,---,0.00,VWS V14.01,2013-01-21 17:05:00,
2013-01-21 09:10:00,41.9,11.2,23.68,ENE,68,6.0,8.5,28,0.00,,---,0.00,VWS V14.01,2013-01-21 17:10:00,
2013-01-21 09:15:00,42.3,11.5,23.68,ENE,68,5.6,8.5,28,0.00,,---,0.00,VWS V14.01,2013-01-21 17:15:00,
2013-01-21 09:21:00,42.4,10.0,23.68,NNW,338,4.3,4.3,26,0.00,,---,0.00,VWS V14.01,2013-01-21 17:21:00,
2013-01-21 09:26:00,42.8,12.0,23.68,NNE,22,3.8,5.6,28,0.00,,---,0.00,VWS V14.01,2013-01-21 17:26:00,
2013-01-21 09:31:00,43.3,12.4,23.68,NNW,338,2.0,3.8,28,0.00,,---,0.00,VWS V14.01,2013-01-21 17:31:00,
2013-01-21 09:36:00,43.7,10.2,23.68,ENE,68,0.0,1.1,25,0.00,,---,0.00,VWS V14.01,2013-01-21 17:36:00,
2013-01-21 09:42:00,44.1,10.5,23.68,NNE,22,0.0,2.7,25,0.00,,---,0.00,VWS V14.01,2013-01-21 17:42:00,
2013-01-21 09:48:00,44.2,10.7,23.68,ESE,112,0.0,0.0,25,0.00,,---,0.00,VWS V14.01,2013-01-21 17:48:00,
2013-01-21 09:53:00,44.8,11.1,23.68,SSW,202,0.0,0.0,25,0.00,,---,0.00,VWS V14.01,2013-01-21 17:53:00,
2013-01-21 09:59:00,45.7,11.9,23.68,North,0,0.0,2.7,25,0.00,,---,0.00,VWS V14.01,2013-01-21 17:59:00,
2013-01-21 10:04:00,46.0,12.2,23.68,East,90,0.0,2.9,25,0.00,,---,0.00,VWS V14.01,2013-01-21 18:04:00,
2013-01-21 10:10:00,46.9,12.1,23.68,NNE,22,0.0,0.0,24,0.00,,---,0.00,VWS V14.01,2013-01-21 18:10:00,
2013-01-21 10:15:00,47.3,12.4,23.68,NNE,22,0.0,0.0,24,0.00,,---,0.00,VWS V14.01,2013-01-21 18:15:00,
2013-01-21 10:20:00,47.8,12.8,23.68,ENE,68,2.7,2.7,24,0.00,,---,0.00,VWS V14.01,2013-01-21 18:20:00,
2013-01-21 10:25:00,47.8,10.9,23.68,North,0,0.9,2.9,22,0.00,,---,0.00,VWS V14.01,2013-01-21 18:25:00,
2013-01-21 10:30:00,48.4,13.3,23.68,NNW,338,0.9,4.5,24,0.00,,---,0.00,VWS V14.01,2013-01-21 18:30:00,
2013-01-21 10:35:00,48.9,13.7,23.68,NNE,22,2.7,3.1,24,0.00,,---,0.00,VWS V14.01,2013-01-21 18:35:00,
2013-01-21 10:40:00,50.2,16.6,23.68,NNE,22,1.6,2.9,26,0.00,,---,0.00,VWS V14.01,2013-01-21 18:40:00,
2013-01-21 10:45:00,49.3,11.0,23.68,NNW,338,1.3,2.9,21,0.00,,---,0.00,VWS V14.01,2013-01-21 18:45:00,
2013-01-21 10:50:00,49.3,14.0,23.71,NNE,22,2.0,4.9,24,0.00,,---,0.00,VWS V14.01,2013-01-21 18:50:00,
2013-01-21 10:56:00,49.5,11.2,23.71,NNW,338,0.9,4.3,21,0.00,,---,0.00,VWS V14.01,2013-01-21 18:56:00,
2013-01-21 11:01:00,49.3,11.0,23.71,NNE,22,3.1,3.4,21,0.00,,---,0.00,VWS V14.01,2013-01-21 19:01:00,
2013-01-21 11:06:00,49.3,11.0,23.71,NE,45,2.0,5.6,21,0.00,,---,0.00,VWS V14.01,2013-01-21 19:06:00,
2013-01-21 11:11:00,49.5,11.2,23.71,North,0,1.3,6.3,21,0.00,,---,0.00,VWS V14.01,2013-01-21 19:11:00,
2013-01-21 11:16:00,49.5,11.2,23.71,ENE,68,5.6,6.0,21,0.00,,---,0.00,VWS V14.01,2013-01-21 19:16:00,
2013-01-21 11:21:00,49.5,11.2,23.71,North,0,3.8,7.6,21,0.00,,---,0.00,VWS V14.01,2013-01-21 19:21:00,
2013-01-21 11:26:00,48.9,10.7,23.71,NE,45,6.3,6.3,21,0.00,,---,0.00,VWS V14.01,2013-01-21 19:26:00,
2013-01-21 11:32:00,48.7,10.6,23.71,North,0,4.3,4.3,21,0.00,,---,0.00,VWS V14.01,2013-01-21 19:32:00,
2013-01-21 11:37:00,49.1,10.9,23.71,NNE,22,3.4,4.3,21,0.00,,---,0.00,VWS V14.01,2013-01-21 19:37:00,
2013-01-21 11:42:00,49.1,10.9,23.71,NE,45,6.0,6.0,21,0.00,,---,0.00,VWS V14.01,2013-01-21 19:42:00,
2013-01-21 11:47:00,48.7,10.6,23.71,North,0,4.3,5.8,21,0.00,,---,0.00,VWS V14.01,2013-01-21 19:47:00,
2013-01-21 11:52:00,49.1,10.9,23.68,North,0,4.7,4.7,21,0.00,,---,0.00,VWS V14.01,2013-01-21 19:52:00,
2013-01-21 11:57:00,49.6,11.3,23.68,West,270,0.0,3.1,21,0.00,,---,0.00,VWS V14.01,2013-01-21 19:57:00,
2013-01-21 12:02:00,49.3,11.0,23.68,North,0,2.7,3.8,21,0.00,,---,0.00,VWS V14.01,2013-01-21 20:02:00,
2013-01-21 12:07:00,49.1,10.9,23.68,North,0,0.0,2.0,21,0.00,,---,0.00,VWS V14.01,2013-01-21 20:07:00,
2013-01-21 12:12:00,49.1,10.9,23.68,NNW,338,3.4,6.3,21,0.00,,---,0.00,VWS V14.01,2013-01-21 20:12:00,
2013-01-21 12:17:00,48.7,10.6,23.68,NNW,338,1.1,2.7,21,0.00,,---,0.00,VWS V14.01,2013-01-21 20:17:00,
2013-01-21 12:22:00,48.7,10.6,23.68,North,0,3.8,5.8,21,0.00,,---,0.00,VWS V14.01,2013-01-21 20:22:00,
2013-01-21 12:27:00,48.7,10.6,23.68,NE,45,3.1,3.1,21,0.00,,---,0.00,VWS V14.01,2013-01-21 20:27:00,
2013-01-21 12:33:00,48.4,10.3,23.68,NNW,338,0.9,3.6,21,0.00,,---,0.00,VWS V14.01,2013-01-21 20:33:00,
2013-01-21 12:39:00,48.6,10.4,23.68,NW,315,0.0,5.8,21,0.00,,---,0.00,VWS V14.01,2013-01-21 20:39:00,
2013-01-21 12:44:00,48.6,10.4,23.68,North,0,2.9,2.9,21,0.00,,---,0.00,VWS V14.01,2013-01-21 20:44:00,
2013-01-21 12:49:00,48.7,10.6,23.68,NE,45,3.4,5.8,21,0.00,,---,0.00,VWS V14.01,2013-01-21 20:49:00,
2013-01-21 12:54:00,48.6,10.4,23.68,North,0,0.0,6.5,21,0.00,,---,0.00,VWS V14.01,2013-01-21 20:54:00,
2013-01-21 12:59:00,48.6,10.4,23.68,NE,45,2.9,2.9,21,0.00,,---,0.00,VWS V14.01,2013-01-21 20:59:00,
2013-01-21 13:04:00,48.6,10.4,23.65,NNE,22,1.1,1.1,21,0.00,,---,0.00,VWS V14.01,2013-01-21 21:04:00,
2013-01-21 13:09:00,48.0,11.0,23.65,ENE,68,2.2,4.0,22,0.00,,---,0.00,VWS V14.01,2013-01-21 21:09:00,
2013-01-21 13:14:00,48.0,11.0,23.65,NNW,338,2.7,4.7,22,0.00,,---,0.00,VWS V14.01,2013-01-21 21:14:00,
2013-01-21 13:19:00,48.0,11.0,23.65,NNE,22,2.0,4.3,22,0.00,,---,0.00,VWS V14.01,2013-01-21 21:19:00,
2013-01-21 13:24:00,47.8,10.9,23.65,North,0,3.6,3.6,22,0.00,,---,0.00,VWS V14.01,2013-01-21 21:24:00,
2013-01-21 13:29:00,47.8,10.9,23.65,NNE,22,1.3,4.3,22,0.00,,---,0.00,VWS V14.01,2013-01-21 21:29:00,
2013-01-21 13:34:00,47.8,10.9,23.65,NNW,338,2.0,4.9,22,0.00,,---,0.00,VWS V14.01,2013-01-21 21:34:00,
2013-01-21 13:39:00,47.8,10.9,23.65,NNE,22,3.6,6.3,22,0.00,,---,0.00,VWS V14.01,2013-01-21 21:39:00,
2013-01-21 13:44:00,47.7,10.7,23.65,NNE,22,2.7,6.5,22,0.00,,---,0.00,VWS V14.01,2013-01-21 21:44:00,
2013-01-21 13:49:00,47.7,10.7,23.65,North,0,3.4,3.4,22,0.00,,---,0.00,VWS V14.01,2013-01-21 21:49:00,
2013-01-21 13:54:00,47.5,10.6,23.65,NNW,338,5.6,5.8,22,0.00,,---,0.00,VWS V14.01,2013-01-21 21:54:00,
2013-01-21 13:59:00,47.5,10.6,23.65,NNW,338,2.0,2.0,22,0.00,,---,0.00,VWS V14.01,2013-01-21 21:59:00,
2013-01-21 14:04:00,47.5,10.6,23.65,NNW,338,0.0,5.4,22,0.00,,---,0.00,VWS V14.01,2013-01-21 22:04:00,
2013-01-21 14:09:00,47.5,7.3,23.65,NNE,22,1.3,4.3,19,0.00,,---,0.00,VWS V14.01,2013-01-21 22:09:00,
2013-01-21 14:14:00,47.5,7.3,23.65,NNW,338,0.0,3.6,19,0.00,,---,0.00,VWS V14.01,2013-01-21 22:14:00,
2013-01-21 14:19:00,47.5,7.3,23.65,North,0,0.0,4.5,19,0.00,,---,0.00,VWS V14.01,2013-01-21 22:19:00,
2013-01-21 14:24:00,47.3,7.1,23.65,North,0,0.0,0.0,19,0.00,,---,0.00,VWS V14.01,2013-01-21 22:24:00,
2013-01-21 14:29:00,47.3,7.1,23.65,NNE,22,3.4,3.6,19,0.00,,---,0.00,VWS V14.01,2013-01-21 22:29:00,
2013-01-21 14:34:00,47.3,7.1,23.65,NNW,338,4.0,4.0,19,0.00,,---,0.00,VWS V14.01,2013-01-21 22:34:00,
2013-01-21 14:39:00,47.3,7.1,23.65,NE,45,6.0,6.0,19,0.00,,---,0.00,VWS V14.01,2013-01-21 22:39:00,
2013-01-21 14:44:00,47.3,7.1,23.65,NNW,338,4.3,6.3,19,0.00,,---,0.00,VWS V14.01,2013-01-21 22:44:00,
2013-01-21 14:49:00,47.3,7.1,23.65,NNE,22,1.3,5.4,19,0.00,,---,0.00,VWS V14.01,2013-01-21 22:49:00,
2013-01-21 14:54:00,46.9,6.8,23.65,NNE,22,2.7,2.7,19,0.00,,---,0.00,VWS V14.01,2013-01-21 22:54:00,
2013-01-21 14:59:00,46.8,6.7,23.65,NNW,338,2.9,3.8,19,0.00,,---,0.00,VWS V14.01,2013-01-21 22:59:00,
2013-01-21 15:04:00,46.9,6.8,23.65,NNW,338,4.0,4.0,19,0.00,,---,0.00,VWS V14.01,2013-01-21 23:04:00,
2013-01-21 15:09:00,46.8,6.7,23.65,NNE,22,4.9,4.9,19,0.00,,---,0.00,VWS V14.01,2013-01-21 23:09:00,
2013-01-21 15:14:00,46.6,6.5,23.65,NE,45,0.0,3.1,19,0.00,,---,0.00,VWS V14.01,2013-01-21 23:14:00,
2013-01-21 15:19:00,46.4,6.4,23.65,NNW,338,3.4,3.4,19,0.00,,---,0.00,VWS V14.01,2013-01-21 23:19:00,
2013-01-21 15:24:00,46.4,6.4,23.65,NNW,338,0.0,2.7,19,0.00,,---,0.00,VWS V14.01,2013-01-21 23:24:00,
2013-01-21 15:29:00,46.2,7.4,23.65,NE,45,0.0,3.4,20,0.00,,---,0.00,VWS V14.01,2013-01-21 23:29:00,
2013-01-21 15:34:00,46.0,7.2,23.65,NNE,22,2.9,2.9,20,0.00,,---,0.00,VWS V14.01,2013-01-21 23:34:00,
2013-01-21 15:39:00,46.2,7.4,23.65,NNW,338,1.6,3.8,20,0.00,,---,0.00,VWS V14.01,2013-01-21 23:39:00,
2013-01-21 15:44:00,46.0,7.2,23.65,NE,45,2.0,2.0,20,0.00,,---,0.00,VWS V14.01,2013-01-21 23:44:00,
2013-01-21 15:49:00,45.9,7.1,23.65,NNE,22,0.0,2.9,20,0.00,,---,0.00,VWS V14.01,2013-01-21 23:49:00,
2013-01-21 15:54:00,45.5,6.8,23.65,NNE,22,2.7,2.7,20,0.00,,---,0.00,VWS V14.01,2013-01-21 23:54:00,
2013-01-21 15:59:00,45.5,6.8,23.65,NNE,22,2.5,3.8,20,0.00,,---,0.00,VWS V14.01,2013-01-21 23:59:00,
2013-01-21 16:04:00,45.3,6.6,23.65,NNW,338,3.4,4.7,20,0.00,,---,0.00,VWS V14.01,2013-01-22 00:04:00,
2013-01-21 16:09:00,45.1,6.5,23.65,NNW,338,1.3,2.9,20,0.00,,---,0.00,VWS V14.01,2013-01-22 00:09:00,
2013-01-21 16:14:00,44.8,6.2,23.65,NNW,338,1.6,2.9,20,0.00,,---,0.00,VWS V14.01,2013-01-22 00:14:00,
2013-01-21 16:20:00,44.8,6.2,23.65,NE,45,4.3,4.3,20,0.00,,---,0.00,VWS V14.01,2013-01-22 00:20:00,
2013-01-21 16:25:00,44.2,5.7,23.65,NNE,22,4.0,4.0,20,0.00,,---,0.00,VWS V14.01,2013-01-22 00:25:00,
2013-01-21 16:30:00,43.7,5.3,23.65,NNE,22,3.6,3.6,20,0.00,,---,0.00,VWS V14.01,2013-01-22 00:30:00,
2013-01-21 16:35:00,43.3,5.0,23.65,NE,45,2.9,3.4,20,0.00,,---,0.00,VWS V14.01,2013-01-22 00:35:00,
2013-01-21 16:40:00,43.0,4.7,23.65,NNE,22,3.6,4.3,20,0.00,,---,0.00,VWS V14.01,2013-01-22 00:40:00,
2013-01-21 16:45:00,42.4,5.3,23.65,NNE,22,3.6,3.6,21,0.00,,---,0.00,VWS V14.01,2013-01-22 00:45:00,
2013-01-21 16:50:00,42.3,5.1,23.65,NNE,22,3.6,3.6,21,0.00,,---,0.00,VWS V14.01,2013-01-22 00:50:00,
2013-01-21 16:55:00,41.7,4.7,23.65,NNE,22,3.6,3.8,21,0.00,,---,0.00,VWS V14.01,2013-01-22 00:55:00,
2013-01-21 17:00:00,41.2,4.2,23.65,North,0,3.1,3.8,21,0.00,,---,0.00,VWS V14.01,2013-01-22 01:00:00,
2013-01-21 17:05:00,40.3,3.5,23.65,NNE,22,3.1,3.6,21,0.00,,---,0.00,VWS V14.01,2013-01-22 01:05:00,
2013-01-21 17:10:00,38.7,2.1,23.65,NE,45,3.1,3.6,21,0.00,,---,0.00,VWS V14.01,2013-01-22 01:10:00,
2013-01-21 17:15:00,37.2,1.9,23.65,NNE,22,0.0,0.0,22,0.00,,---,0.00,VWS V14.01,2013-01-22 01:15:00,
2013-01-21 17:20:00,37.0,9.2,23.68,NNE,22,0.0,0.0,31,0.00,,---,0.00,VWS V14.01,2013-01-22 01:20:00,
2013-01-21 17:25:00,35.6,2.4,23.68,North,0,1.1,1.3,24,0.00,,---,0.00,VWS V14.01,2013-01-22 01:25:00,
2013-01-21 17:30:00,34.3,2.2,23.68,NE,45,2.7,3.1,25,0.00,,---,0.00,VWS V14.01,2013-01-22 01:30:00,
2013-01-21 17:35:00,34.2,2.0,23.68,ENE,68,1.6,2.5,25,0.00,,---,0.00,VWS V14.01,2013-01-22 01:35:00,
2013-01-21 17:40:00,34.0,1.9,23.68,NE,45,2.9,2.9,25,0.00,,---,0.00,VWS V14.01,2013-01-22 01:40:00,
2013-01-21 17:45:00,33.4,1.4,23.68,NE,45,1.1,2.7,25,0.00,,---,0.00,VWS V14.01,2013-01-22 01:45:00,
2013-01-21 17:50:00,32.9,0.9,23.68,North,0,0.0,0.0,25,0.00,,---,0.00,VWS V14.01,2013-01-22 01:50:00,
2013-01-21 17:55:00,32.2,0.3,23.68,North,0,0.0,0.0,25,0.00,,---,0.00,VWS V14.01,2013-01-22 01:55:00,
2013-01-21 18:00:00,31.5,-0.3,23.68,ENE,68,1.1,1.1,25,0.00,,---,0.00,VWS V14.01,2013-01-22 02:00:00,
2013-01-21 18:05:00,30.4,1.2,23.68,ENE,68,0.0,0.0,28,0.00,,---,0.00,VWS V14.01,2013-01-22 02:05:00,
2013-01-21 18:10:00,29.5,0.4,23.68,NE,45,2.5,2.5,28,0.00,,---,0.00,VWS V14.01,2013-01-22 02:10:00,
2013-01-21 18:15:00,28.9,-0.1,23.68,NE,45,2.9,3.4,28,0.00,,---,0.00,VWS V14.01,2013-01-22 02:15:00,
2013-01-21 18:20:00,28.4,-0.5,23.68,NE,45,1.3,2.7,28,0.00,,---,0.00,VWS V14.01,2013-01-22 02:20:00,
2013-01-21 18:25:00,28.2,1.5,23.68,South,180,2.0,2.5,31,0.00,,---,0.00,VWS V14.01,2013-01-22 02:25:00,
2013-01-21 18:30:00,28.0,1.3,23.68,East,90,0.0,0.0,31,0.00,,---,0.00,VWS V14.01,2013-01-22 02:30:00,
2013-01-21 18:35:00,27.9,1.2,23.68,WSW,248,0.9,2.7,31,0.00,,---,0.00,VWS V14.01,2013-01-22 02:35:00,
2013-01-21 18:40:00,27.3,0.7,23.68,North,0,1.6,1.6,31,0.00,,---,0.00,VWS V14.01,2013-01-22 02:40:00,
2013-01-21 18:45:00,26.8,0.2,23.68,NNE,22,0.0,0.0,31,0.00,,---,0.00,VWS V14.01,2013-01-22 02:45:00,
2013-01-21 18:50:00,26.1,0.2,23.68,SSW,202,0.0,0.0,32,0.00,,---,0.00,VWS V14.01,2013-01-22 02:50:00,
2013-01-21 18:55:00,25.3,-0.4,23.68,NE,45,0.0,0.0,32,0.00,,---,0.00,VWS V14.01,2013-01-22 02:55:00,
2013-01-21 19:00:00,24.8,-0.9,23.68,ENE,68,0.9,1.6,32,0.00,,---,0.00,VWS V14.01,2013-01-22 03:00:00,
2013-01-21 19:05:00,24.8,-0.9,23.68,SW,225,1.1,1.1,32,0.00,,---,0.00,VWS V14.01,2013-01-22 03:05:00,
2013-01-21 19:10:00,24.3,-0.7,23.68,ENE,68,1.6,2.0,33,0.00,,---,0.00,VWS V14.01,2013-01-22 03:10:00,
2013-01-21 19:15:00,23.5,-1.3,23.68,NE,45,2.0,2.0,33,0.00,,---,0.00,VWS V14.01,2013-01-22 03:15:00,
2013-01-21 19:20:00,23.5,-1.3,23.68,WSW,248,1.6,2.0,33,0.00,,---,0.00,VWS V14.01,2013-01-22 03:20:00,
2013-01-21 19:25:00,23.5,-1.3,23.68,NNE,22,2.5,2.5,33,0.00,,---,0.00,VWS V14.01,2013-01-22 03:25:00,
2013-01-21 19:30:00,23.4,-0.9,23.68,SW,225,2.0,2.2,34,0.00,,---,0.00,VWS V14.01,2013-01-22 03:30:00,
2013-01-21 19:35:00,23.5,-0.7,23.68,SW,225,2.5,3.6,34,0.00,,---,0.00,VWS V14.01,2013-01-22 03:35:00,
2013-01-21 19:40:00,23.5,0.5,23.68,North,0,2.2,2.2,36,0.00,,---,0.00,VWS V14.01,2013-01-22 03:40:00,
2013-01-21 19:45:00,23.2,0.2,23.68,NE,45,2.9,3.1,36,0.00,,---,0.00,VWS V14.01,2013-01-22 03:45:00,
2013-01-21 19:50:00,22.6,0.3,23.68,NE,45,2.5,2.7,37,0.00,,---,0.00,VWS V14.01,2013-01-22 03:50:00,
2013-01-21 19:55:00,22.3,0.0,23.68,WSW,248,2.0,2.0,37,0.00,,---,0.00,VWS V14.01,2013-01-22 03:55:00,
2013-01-21 20:01:00,22.3,-0.6,23.68,SSW,202,2.5,2.5,36,0.00,,---,0.00,VWS V14.01,2013-01-22 04:01:00,
2013-01-21 20:06:00,22.3,0.0,23.68,WSW,248,0.9,2.9,37,0.00,,---,0.00,VWS V14.01,2013-01-22 04:06:00,
2013-01-21 20:11:00,22.1,0.4,23.68,NE,45,2.5,2.5,38,0.00,,---,0.00,VWS V14.01,2013-01-22 04:11:00,
2013-01-21 20:16:00,21.9,0.8,23.68,North,0,2.2,3.4,39,0.00,,---,0.00,VWS V14.01,2013-01-22 04:16:00,
2013-01-21 20:21:00,21.9,0.2,23.68,SW,225,3.6,3.8,38,0.00,,---,0.00,VWS V14.01,2013-01-22 04:21:00,
2013-01-21 20:26:00,22.1,0.9,23.68,NNE,22,2.9,3.6,39,0.00,,---,0.00,VWS V14.01,2013-01-22 04:26:00,
2013-01-21 20:31:00,22.5,2.8,23.68,NE,45,2.9,3.4,42,0.00,,---,0.00,VWS V14.01,2013-01-22 04:31:00,
2013-01-21 20:36:00,22.6,3.0,23.68,SW,225,3.4,5.4,42,0.00,,---,0.00,VWS V14.01,2013-01-22 04:36:00,
2013-01-21 20:41:00,22.3,2.7,23.68,East,90,2.0,2.2,42,0.00,,---,0.00,VWS V14.01,2013-01-22 04:41:00,
2013-01-21 20:46:00,21.9,2.4,23.68,WSW,248,1.6,2.2,42,0.00,,---,0.00,VWS V14.01,2013-01-22 04:46:00,
2013-01-21 20:51:00,21.6,2.0,23.68,SSW,202,1.6,1.6,42,0.00,,---,0.00,VWS V14.01,2013-01-22 04:51:00,
2013-01-21 20:56:00,21.2,2.2,23.68,NNW,338,1.6,1.6,43,0.00,,---,0.00,VWS V14.01,2013-01-22 04:56:00,
2013-01-21 21:01:00,21.2,2.2,23.68,WNW,292,1.3,1.3,43,0.00,,---,0.00,VWS V14.01,2013-01-22 05:01:00,
2013-01-21 21:04:00,20.8,1.9,23.68,SW,225,2.2,2.2,43,0.00,,---,0.00,VWS V14.01,2013-01-22 05:04:00,
2013-01-21 21:05:00,20.8,1.9,23.68,SW,225,0.9,2.2,43,0.00,,---,0.00,VWS V14.01,2013-01-22 05:05:00,
2013-01-21 21:07:00,20.7,1.7,23.68,SW,225,0.0,0.0,43,0.00,,---,0.00,VWS V14.01,2013-01-22 05:07:00,
2013-01-21 21:13:00,20.7,1.7,23.68,NW,315,0.0,0.0,43,0.00,,---,0.00,VWS V14.01,2013-01-22 05:13:00,
2013-01-21 21:19:00,20.5,1.5,23.68,WNW,292,1.1,1.1,43,0.00,,---,0.00,VWS V14.01,2013-01-22 05:19:00,
2013-01-21 21:24:00,20.1,1.2,23.68,WSW,248,1.1,1.1,43,0.00,,---,0.00,VWS V14.01,2013-01-22 05:24:00,
2013-01-21 21:29:00,20.1,1.2,23.68,West,270,2.0,2.0,43,0.00,,---,0.00,VWS V14.01,2013-01-22 05:29:00,
2013-01-21 21:34:00,19.8,1.4,23.68,WNW,292,0.0,0.0,44,0.00,,---,0.00,VWS V14.01,2013-01-22 05:34:00,
2013-01-21 21:39:00,19.6,1.2,23.68,WSW,248,2.5,2.5,44,0.00,,---,0.00,VWS V14.01,2013-01-22 05:39:00,
2013-01-21 21:44:00,19.4,1.1,23.68,WSW,248,0.0,0.0,44,0.00,,---,0.00,VWS V14.01,2013-01-22 05:44:00,
2013-01-21 21:49:00,18.9,0.6,23.68,NNE,22,1.3,2.0,44,0.00,,---,0.00,VWS V14.01,2013-01-22 05:49:00,
2013-01-21 21:54:00,18.9,0.6,23.68,WSW,248,0.0,0.0,44,0.00,,---,0.00,VWS V14.01,2013-01-22 05:54:00,
2013-01-21 21:59:00,19.0,0.7,23.68,WSW,248,1.1,2.2,44,0.00,,---,0.00,VWS V14.01,2013-01-22 05:59:00,
2013-01-21 22:04:00,19.0,0.7,23.68,South,180,2.0,2.0,44,0.00,,---,0.00,VWS V14.01,2013-01-22 06:04:00,
2013-01-21 22:09:00,18.9,0.6,23.68,WSW,248,1.1,1.6,44,0.00,,---,0.00,VWS V14.01,2013-01-22 06:09:00,
2013-01-21 22:14:00,18.7,0.4,23.68,SW,225,0.0,0.0,44,0.00,,---,0.00,VWS V14.01,2013-01-22 06:14:00,
2013-01-21 22:19:00,18.3,0.1,23.68,SW,225,0.0,0.0,44,0.00,,---,0.00,VWS V14.01,2013-01-22 06:19:00,
2013-01-21 22:24:00,17.8,-0.4,23.68,NNE,22,1.1,2.0,44,0.00,,---,0.00,VWS V14.01,2013-01-22 06:24:00,
2013-01-21 22:29:00,17.8,-0.4,23.68,WSW,248,0.0,0.0,44,0.00,,---,0.00,VWS V14.01,2013-01-22 06:29:00,
2013-01-21 22:34:00,18.1,-0.1,23.68,SW,225,2.0,2.5,44,0.00,,---,0.00,VWS V14.01,2013-01-22 06:34:00,
2013-01-21 22:39:00,17.8,-0.4,23.68,WSW,248,0.0,0.0,44,0.00,,---,0.00,VWS V14.01,2013-01-22 06:39:00,
2013-01-21 22:44:00,18.0,-0.3,23.68,WNW,292,2.2,2.2,44,0.00,,---,0.00,VWS V14.01,2013-01-22 06:44:00,
2013-01-21 22:49:00,17.8,-0.4,23.68,West,270,0.0,0.0,44,0.00,,---,0.00,VWS V14.01,2013-01-22 06:49:00,
2013-01-21 22:54:00,17.6,-0.6,23.68,SSW,202,0.0,1.3,44,0.00,,---,0.00,VWS V14.01,2013-01-22 06:54:00,
2013-01-21 22:59:00,17.4,-0.3,23.68,SSE,158,1.1,2.0,45,0.00,,---,0.00,VWS V14.01,2013-01-22 06:59:00,
2013-01-21 23:04:00,17.6,-0.1,23.68,WSW,248,2.7,2.9,45,0.00,,---,0.00,VWS V14.01,2013-01-22 07:04:00,
2013-01-21 23:09:00,17.4,-0.3,23.68,WSW,248,1.3,1.6,45,0.00,,---,0.00,VWS V14.01,2013-01-22 07:09:00,
2013-01-21 23:14:00,17.4,-0.3,23.68,WSW,248,2.2,2.7,45,0.00,,---,0.00,VWS V14.01,2013-01-22 07:14:00,
2013-01-21 23:19:00,17.2,-0.4,23.68,WSW,248,1.3,1.3,45,0.00,,---,0.00,VWS V14.01,2013-01-22 07:19:00,
2013-01-21 23:24:00,17.2,-0.4,23.68,WSW,248,2.5,3.4,45,0.00,,---,0.00,VWS V14.01,2013-01-22 07:24:00,
2013-01-21 23:29:00,17.1,-0.6,23.68,SSE,158,2.0,2.0,45,0.00,,---,0.00,VWS V14.01,2013-01-22 07:29:00,
2013-01-21 23:34:00,17.1,-0.6,23.68,SSW,202,0.0,0.0,45,0.00,,---,0.00,VWS V14.01,2013-01-22 07:34:00,
2013-01-21 23:39:00,16.7,-0.9,23.68,SSW,202,0.0,0.0,45,0.00,,---,0.00,VWS V14.01,2013-01-22 07:39:00,
2013-01-21 23:44:00,16.3,-1.3,23.68,SW,225,2.2,2.2,45,0.00,,---,0.00,VWS V14.01,2013-01-22 07:44:00,
2013-01-21 23:49:00,16.2,-1.0,23.68,SSW,202,1.6,2.5,46,0.00,,---,0.00,VWS V14.01,2013-01-22 07:49:00,
2013-01-21 23:54:00,16.2,-1.0,23.68,SSW,202,0.0,0.0,46,0.00,,---,0.00,VWS V14.01,2013-01-22 07:54:00,
2013-01-21 23:59:00,16.2,-1.0,23.68,SW,225,0.9,1.1,46,0.00,,---,0.00,VWS V14.01,2013-01-22 07:59:00,